sensor_id;sensor_type;location;lat;lon;timestamp;P1;durP1;ratioP1;P2;durP2;ratioP2
60612;SDS011;46443;59.792;17.626;2023-02-03T00:01:53;5.00;;;2.13;;
60612;SDS011;46443;59.792;17.626;2023-02-03T00:04:19;3.75;;;2.40;;
60612;SDS011;46443;59.792;17.626;2023-02-03T00:06:45;3.40;;;2.03;;
60612;SDS011;46443;59.792;17.626;2023-02-03T00:09:11;4.03;;;2.20;;
60612;SDS011;46443;59.792;17.626;2023-02-03T00:11:37;4.82;;;2.33;;
60612;SDS011;46443;59.792;17.626;2023-02-03T00:14:03;2.92;;;2.10;;
60612;SDS011;46443;59.792;17.626;2023-02-03T00:16:32;4.75;;;2.40;;
60612;SDS011;46443;59.792;17.626;2023-02-03T00:18:58;3.50;;;2.40;;
60612;SDS011;46443;59.792;17.626;2023-02-03T00:21:25;4.50;;;2.17;;
60612;SDS011;46443;59.792;17.626;2023-02-03T00:23:51;3.92;;;2.30;;
60612;SDS011;46443;59.792;17.626;2023-02-03T00:26:18;3.83;;;2.42;;
60612;SDS011;46443;59.792;17.626;2023-02-03T00:28:44;4.18;;;2.50;;
60612;SDS011;46443;59.792;17.626;2023-02-03T00:31:18;3.70;;;1.80;;
60612;SDS011;46443;59.792;17.626;2023-02-03T00:33:45;4.28;;;1.95;;
60612;SDS011;46443;59.792;17.626;2023-02-03T00:36:11;3.50;;;2.03;;
60612;SDS011;46443;59.792;17.626;2023-02-03T00:38:38;1.85;;;1.70;;
60612;SDS011;46443;59.792;17.626;2023-02-03T00:41:04;3.33;;;2.00;;
60612;SDS011;46443;59.792;17.626;2023-02-03T00:43:31;3.38;;;2.20;;
60612;SDS011;46443;59.792;17.626;2023-02-03T00:45:57;3.38;;;2.42;;
60612;SDS011;46443;59.792;17.626;2023-02-03T00:48:23;3.95;;;2.20;;
60612;SDS011;46443;59.792;17.626;2023-02-03T00:50:49;3.03;;;2.15;;
60612;SDS011;46443;59.792;17.626;2023-02-03T00:53:15;4.05;;;2.10;;
60612;SDS011;46443;59.792;17.626;2023-02-03T00:55:41;3.33;;;2.03;;
60612;SDS011;46443;59.792;17.626;2023-02-03T00:58:08;4.05;;;2.50;;
60612;SDS011;46443;59.792;17.626;2023-02-03T01:00:34;3.30;;;2.10;;
60612;SDS011;46443;59.792;17.626;2023-02-03T01:03:00;3.17;;;1.80;;
60612;SDS011;46443;59.792;17.626;2023-02-03T01:05:27;1.77;;;1.48;;
60612;SDS011;46443;59.792;17.626;2023-02-03T01:07:53;3.85;;;1.83;;
60612;SDS011;46443;59.792;17.626;2023-02-03T01:10:19;3.10;;;1.80;;
60612;SDS011;46443;59.792;17.626;2023-02-03T01:12:45;2.97;;;1.70;;
60612;SDS011;46443;59.792;17.626;2023-02-03T01:15:11;3.22;;;1.98;;
60612;SDS011;46443;59.792;17.626;2023-02-03T01:17:37;5.32;;;1.95;;
60612;SDS011;46443;59.792;17.626;2023-02-03T01:20:03;2.90;;;1.88;;
60612;SDS011;46443;59.792;17.626;2023-02-03T01:22:30;2.65;;;1.70;;
60612;SDS011;46443;59.792;17.626;2023-02-03T01:24:56;3.60;;;1.92;;
60612;SDS011;46443;59.792;17.626;2023-02-03T01:27:22;2.72;;;2.00;;
60612;SDS011;46443;59.792;17.626;2023-02-03T01:29:48;1.95;;;1.65;;
60612;SDS011;46443;59.792;17.626;2023-02-03T01:32:14;3.88;;;1.85;;
60612;SDS011;46443;59.792;17.626;2023-02-03T01:34:40;1.85;;;1.63;;
60612;SDS011;46443;59.792;17.626;2023-02-03T01:37:06;2.50;;;2.00;;
60612;SDS011;46443;59.792;17.626;2023-02-03T01:39:32;2.53;;;1.95;;
60612;SDS011;46443;59.792;17.626;2023-02-03T01:41:58;2.58;;;1.80;;
60612;SDS011;46443;59.792;17.626;2023-02-03T01:44:44;5.30;;;2.05;;
60612;SDS011;46443;59.792;17.626;2023-02-03T01:47:13;1.77;;;1.50;;
60612;SDS011;46443;59.792;17.626;2023-02-03T01:49:41;2.85;;;1.70;;
60612;SDS011;46443;59.792;17.626;2023-02-03T01:52:08;3.03;;;2.00;;
60612;SDS011;46443;59.792;17.626;2023-02-03T01:54:36;3.50;;;1.92;;
60612;SDS011;46443;59.792;17.626;2023-02-03T01:57:05;4.28;;;2.20;;
60612;SDS011;46443;59.792;17.626;2023-02-03T01:59:32;2.78;;;1.83;;
60612;SDS011;46443;59.792;17.626;2023-02-03T02:01:59;2.58;;;1.73;;
60612;SDS011;46443;59.792;17.626;2023-02-03T02:04:25;3.72;;;2.00;;
60612;SDS011;46443;59.792;17.626;2023-02-03T02:06:57;2.80;;;2.05;;
60612;SDS011;46443;59.792;17.626;2023-02-03T02:09:24;2.03;;;1.70;;
60612;SDS011;46443;59.792;17.626;2023-02-03T02:11:51;2.45;;;1.60;;
60612;SDS011;46443;59.792;17.626;2023-02-03T02:14:17;2.95;;;2.08;;
60612;SDS011;46443;59.792;17.626;2023-02-03T02:16:52;6.43;;;2.20;;
60612;SDS011;46443;59.792;17.626;2023-02-03T02:27:13;4.32;;;1.90;;
60612;SDS011;46443;59.792;17.626;2023-02-03T02:32:18;3.92;;;1.90;;
60612;SDS011;46443;59.792;17.626;2023-02-03T02:35:06;2.30;;;1.58;;
60612;SDS011;46443;59.792;17.626;2023-02-03T02:37:46;1.67;;;1.58;;
60612;SDS011;46443;59.792;17.626;2023-02-03T02:45:16;2.08;;;1.73;;
60612;SDS011;46443;59.792;17.626;2023-02-03T02:47:45;1.73;;;1.60;;
60612;SDS011;46443;59.792;17.626;2023-02-03T02:50:25;5.90;;;2.08;;
60612;SDS011;46443;59.792;17.626;2023-02-03T02:52:51;3.20;;;2.00;;
60612;SDS011;46443;59.792;17.626;2023-02-03T02:55:19;4.35;;;2.08;;
60612;SDS011;46443;59.792;17.626;2023-02-03T02:57:51;2.72;;;1.92;;
60612;SDS011;46443;59.792;17.626;2023-02-03T03:00:18;2.05;;;1.67;;
60612;SDS011;46443;59.792;17.626;2023-02-03T03:02:45;3.35;;;1.95;;
60612;SDS011;46443;59.792;17.626;2023-02-03T03:05:11;1.63;;;1.50;;
60612;SDS011;46443;59.792;17.626;2023-02-03T03:07:42;5.10;;;2.30;;
60612;SDS011;46443;59.792;17.626;2023-02-03T03:10:10;1.98;;;1.80;;
60612;SDS011;46443;59.792;17.626;2023-02-03T03:12:41;2.75;;;1.88;;
60612;SDS011;46443;59.792;17.626;2023-02-03T03:15:10;4.40;;;2.08;;
60612;SDS011;46443;59.792;17.626;2023-02-03T03:17:44;2.42;;;1.80;;
60612;SDS011;46443;59.792;17.626;2023-02-03T03:20:13;2.22;;;1.85;;
60612;SDS011;46443;59.792;17.626;2023-02-03T03:22:41;2.28;;;1.63;;
60612;SDS011;46443;59.792;17.626;2023-02-03T03:25:10;6.88;;;2.40;;
60612;SDS011;46443;59.792;17.626;2023-02-03T03:27:38;6.95;;;1.73;;
60612;SDS011;46443;59.792;17.626;2023-02-03T03:30:07;3.00;;;1.73;;
60612;SDS011;46443;59.792;17.626;2023-02-03T03:35:01;6.70;;;2.10;;
60612;SDS011;46443;59.792;17.626;2023-02-03T03:37:34;3.28;;;2.08;;
60612;SDS011;46443;59.792;17.626;2023-02-03T03:40:05;2.05;;;1.45;;
60612;SDS011;46443;59.792;17.626;2023-02-03T03:42:35;1.52;;;1.42;;
60612;SDS011;46443;59.792;17.626;2023-02-03T03:45:04;2.28;;;1.90;;
60612;SDS011;46443;59.792;17.626;2023-02-03T03:47:34;2.80;;;1.70;;
60612;SDS011;46443;59.792;17.626;2023-02-03T03:50:01;6.05;;;1.75;;
60612;SDS011;46443;59.792;17.626;2023-02-03T03:52:30;1.90;;;1.77;;
60612;SDS011;46443;59.792;17.626;2023-02-03T03:54:58;2.40;;;1.75;;
60612;SDS011;46443;59.792;17.626;2023-02-03T03:57:26;4.00;;;1.80;;
60612;SDS011;46443;59.792;17.626;2023-02-03T03:59:53;1.70;;;1.58;;
60612;SDS011;46443;59.792;17.626;2023-02-03T04:02:19;2.30;;;1.80;;
60612;SDS011;46443;59.792;17.626;2023-02-03T04:04:46;2.30;;;1.50;;
60612;SDS011;46443;59.792;17.626;2023-02-03T04:07:13;2.13;;;1.60;;
60612;SDS011;46443;59.792;17.626;2023-02-03T04:09:39;1.92;;;1.67;;
60612;SDS011;46443;59.792;17.626;2023-02-03T04:12:28;2.63;;;1.85;;
60612;SDS011;46443;59.792;17.626;2023-02-03T04:14:53;2.92;;;1.73;;
60612;SDS011;46443;59.792;17.626;2023-02-03T04:17:19;2.53;;;1.83;;
60612;SDS011;46443;59.792;17.626;2023-02-03T04:19:46;1.83;;;1.60;;
60612;SDS011;46443;59.792;17.626;2023-02-03T04:22:12;2.22;;;1.80;;
60612;SDS011;46443;59.792;17.626;2023-02-03T04:24:38;1.60;;;1.50;;
60612;SDS011;46443;59.792;17.626;2023-02-03T04:27:04;3.53;;;2.10;;
60612;SDS011;46443;59.792;17.626;2023-02-03T04:29:30;2.20;;;2.00;;
60612;SDS011;46443;59.792;17.626;2023-02-03T04:31:56;2.55;;;1.67;;
60612;SDS011;46443;59.792;17.626;2023-02-03T04:34:22;4.45;;;2.05;;
60612;SDS011;46443;59.792;17.626;2023-02-03T04:36:48;2.65;;;1.73;;
60612;SDS011;46443;59.792;17.626;2023-02-03T04:39:14;2.15;;;1.65;;
60612;SDS011;46443;59.792;17.626;2023-02-03T04:41:40;3.50;;;1.80;;
60612;SDS011;46443;59.792;17.626;2023-02-03T04:44:06;2.42;;;1.65;;
60612;SDS011;46443;59.792;17.626;2023-02-03T04:46:32;3.67;;;2.08;;
60612;SDS011;46443;59.792;17.626;2023-02-03T04:48:59;4.80;;;1.88;;
60612;SDS011;46443;59.792;17.626;2023-02-03T04:51:25;4.15;;;2.08;;
60612;SDS011;46443;59.792;17.626;2023-02-03T04:53:51;5.57;;;2.33;;
60612;SDS011;46443;59.792;17.626;2023-02-03T04:56:17;2.58;;;1.77;;
60612;SDS011;46443;59.792;17.626;2023-02-03T04:58:43;2.97;;;1.90;;
60612;SDS011;46443;59.792;17.626;2023-02-03T05:01:09;2.67;;;1.95;;
60612;SDS011;46443;59.792;17.626;2023-02-03T05:03:36;4.28;;;2.28;;
60612;SDS011;46443;59.792;17.626;2023-02-03T05:06:02;2.30;;;1.90;;
60612;SDS011;46443;59.792;17.626;2023-02-03T05:08:28;2.25;;;1.75;;
60612;SDS011;46443;59.792;17.626;2023-02-03T05:10:54;4.75;;;2.00;;
60612;SDS011;46443;59.792;17.626;2023-02-03T05:13:20;3.38;;;2.10;;
60612;SDS011;46443;59.792;17.626;2023-02-03T05:15:47;4.45;;;2.60;;
60612;SDS011;46443;59.792;17.626;2023-02-03T05:18:13;4.10;;;2.25;;
60612;SDS011;46443;59.792;17.626;2023-02-03T05:20:39;5.07;;;2.38;;
60612;SDS011;46443;59.792;17.626;2023-02-03T05:23:05;3.15;;;2.00;;
60612;SDS011;46443;59.792;17.626;2023-02-03T05:25:31;3.63;;;2.33;;
60612;SDS011;46443;59.792;17.626;2023-02-03T05:27:57;1.52;;;1.42;;
60612;SDS011;46443;59.792;17.626;2023-02-03T05:30:23;2.90;;;2.05;;
60612;SDS011;46443;59.792;17.626;2023-02-03T05:32:49;5.70;;;2.30;;
60612;SDS011;46443;59.792;17.626;2023-02-03T05:35:15;3.92;;;2.53;;
60612;SDS011;46443;59.792;17.626;2023-02-03T05:37:44;3.67;;;2.10;;
60612;SDS011;46443;59.792;17.626;2023-02-03T05:40:11;2.42;;;1.98;;
60612;SDS011;46443;59.792;17.626;2023-02-03T05:42:57;3.00;;;2.10;;
60612;SDS011;46443;59.792;17.626;2023-02-03T05:45:24;2.28;;;1.77;;
60612;SDS011;46443;59.792;17.626;2023-02-03T05:47:50;2.55;;;1.77;;
60612;SDS011;46443;59.792;17.626;2023-02-03T05:50:16;3.83;;;1.80;;
60612;SDS011;46443;59.792;17.626;2023-02-03T05:52:42;4.63;;;2.40;;
60612;SDS011;46443;59.792;17.626;2023-02-03T05:55:08;4.35;;;2.90;;
60612;SDS011;46443;59.792;17.626;2023-02-03T05:57:34;4.50;;;2.60;;
60612;SDS011;46443;59.792;17.626;2023-02-03T06:00:00;4.97;;;2.80;;
60612;SDS011;46443;59.792;17.626;2023-02-03T06:02:26;4.97;;;2.65;;
60612;SDS011;46443;59.792;17.626;2023-02-03T06:04:52;4.10;;;2.33;;
60612;SDS011;46443;59.792;17.626;2023-02-03T06:07:18;4.32;;;2.60;;
60612;SDS011;46443;59.792;17.626;2023-02-03T06:09:44;3.40;;;2.33;;
60612;SDS011;46443;59.792;17.626;2023-02-03T06:12:11;6.20;;;2.55;;
60612;SDS011;46443;59.792;17.626;2023-02-03T06:14:37;6.78;;;2.45;;
60612;SDS011;46443;59.792;17.626;2023-02-03T06:17:03;5.95;;;3.53;;
60612;SDS011;46443;59.792;17.626;2023-02-03T06:19:29;5.38;;;3.67;;
60612;SDS011;46443;59.792;17.626;2023-02-03T06:21:55;5.82;;;3.80;;
60612;SDS011;46443;59.792;17.626;2023-02-03T06:24:22;7.05;;;3.75;;
60612;SDS011;46443;59.792;17.626;2023-02-03T06:26:48;4.80;;;2.95;;
60612;SDS011;46443;59.792;17.626;2023-02-03T06:29:14;4.22;;;3.17;;
60612;SDS011;46443;59.792;17.626;2023-02-03T06:31:40;3.72;;;2.53;;
60612;SDS011;46443;59.792;17.626;2023-02-03T06:34:06;3.38;;;2.40;;
60612;SDS011;46443;59.792;17.626;2023-02-03T06:36:32;3.85;;;2.25;;
60612;SDS011;46443;59.792;17.626;2023-02-03T06:38:58;5.68;;;2.47;;
60612;SDS011;46443;59.792;17.626;2023-02-03T06:41:24;4.90;;;2.50;;
60612;SDS011;46443;59.792;17.626;2023-02-03T06:46:20;2.00;;;1.80;;
60612;SDS011;46443;59.792;17.626;2023-02-03T06:48:46;2.00;;;1.67;;
60612;SDS011;46443;59.792;17.626;2023-02-03T06:51:12;4.43;;;2.45;;
60612;SDS011;46443;59.792;17.626;2023-02-03T06:53:38;3.22;;;2.00;;
60612;SDS011;46443;59.792;17.626;2023-02-03T06:56:04;5.38;;;3.05;;
60612;SDS011;46443;59.792;17.626;2023-02-03T06:58:31;5.60;;;2.88;;
60612;SDS011;46443;59.792;17.626;2023-02-03T07:00:57;3.50;;;2.15;;
60612;SDS011;46443;59.792;17.626;2023-02-03T07:03:23;3.05;;;2.40;;
60612;SDS011;46443;59.792;17.626;2023-02-03T07:05:49;4.10;;;2.45;;
60612;SDS011;46443;59.792;17.626;2023-02-03T07:08:15;3.58;;;2.42;;
60612;SDS011;46443;59.792;17.626;2023-02-03T07:10:41;3.60;;;2.20;;
60612;SDS011;46443;59.792;17.626;2023-02-03T07:13:07;4.18;;;2.55;;
60612;SDS011;46443;59.792;17.626;2023-02-03T07:15:33;5.45;;;2.63;;
60612;SDS011;46443;59.792;17.626;2023-02-03T07:17:59;4.05;;;2.60;;
60612;SDS011;46443;59.792;17.626;2023-02-03T07:20:25;3.70;;;2.60;;
60612;SDS011;46443;59.792;17.626;2023-02-03T07:22:56;4.68;;;2.70;;
60612;SDS011;46443;59.792;17.626;2023-02-03T07:25:22;5.10;;;2.53;;
60612;SDS011;46443;59.792;17.626;2023-02-03T07:27:49;4.20;;;2.20;;
60612;SDS011;46443;59.792;17.626;2023-02-03T07:30:15;3.95;;;2.03;;
60612;SDS011;46443;59.792;17.626;2023-02-03T07:32:46;5.50;;;2.17;;
60612;SDS011;46443;59.792;17.626;2023-02-03T07:35:12;5.30;;;2.78;;
60612;SDS011;46443;59.792;17.626;2023-02-03T07:37:38;3.38;;;2.13;;
60612;SDS011;46443;59.792;17.626;2023-02-03T07:40:04;2.95;;;2.30;;
60612;SDS011;46443;59.792;17.626;2023-02-03T07:42:30;3.42;;;2.38;;
60612;SDS011;46443;59.792;17.626;2023-02-03T07:44:56;3.47;;;2.30;;
60612;SDS011;46443;59.792;17.626;2023-02-03T07:47:22;5.57;;;2.65;;
60612;SDS011;46443;59.792;17.626;2023-02-03T07:49:48;6.05;;;2.42;;
60612;SDS011;46443;59.792;17.626;2023-02-03T07:52:14;4.22;;;2.92;;
60612;SDS011;46443;59.792;17.626;2023-02-03T07:54:40;1.70;;;1.52;;
60612;SDS011;46443;59.792;17.626;2023-02-03T07:57:06;2.75;;;1.85;;
60612;SDS011;46443;59.792;17.626;2023-02-03T07:59:33;3.55;;;2.20;;
60612;SDS011;46443;59.792;17.626;2023-02-03T08:01:59;4.03;;;1.88;;
60612;SDS011;46443;59.792;17.626;2023-02-03T08:04:25;5.82;;;2.28;;
60612;SDS011;46443;59.792;17.626;2023-02-03T08:06:51;3.65;;;1.98;;
60612;SDS011;46443;59.792;17.626;2023-02-03T08:09:18;3.88;;;2.03;;
60612;SDS011;46443;59.792;17.626;2023-02-03T08:11:44;4.60;;;2.72;;
60612;SDS011;46443;59.792;17.626;2023-02-03T08:14:10;2.10;;;1.90;;
60612;SDS011;46443;59.792;17.626;2023-02-03T08:16:36;3.50;;;2.33;;
60612;SDS011;46443;59.792;17.626;2023-02-03T08:19:02;5.03;;;3.13;;
60612;SDS011;46443;59.792;17.626;2023-02-03T08:21:28;4.65;;;2.47;;
60612;SDS011;46443;59.792;17.626;2023-02-03T08:23:55;3.70;;;2.35;;
60612;SDS011;46443;59.792;17.626;2023-02-03T08:26:21;8.45;;;2.65;;
60612;SDS011;46443;59.792;17.626;2023-02-03T08:28:47;3.33;;;2.13;;
60612;SDS011;46443;59.792;17.626;2023-02-03T08:31:14;3.53;;;2.15;;
60612;SDS011;46443;59.792;17.626;2023-02-03T08:33:40;3.75;;;2.35;;
60612;SDS011;46443;59.792;17.626;2023-02-03T08:36:06;4.05;;;2.35;;
60612;SDS011;46443;59.792;17.626;2023-02-03T08:38:33;2.88;;;1.92;;
60612;SDS011;46443;59.792;17.626;2023-02-03T08:40:59;4.00;;;2.40;;
60612;SDS011;46443;59.792;17.626;2023-02-03T08:43:25;4.68;;;2.75;;
60612;SDS011;46443;59.792;17.626;2023-02-03T08:45:51;3.80;;;3.03;;
60612;SDS011;46443;59.792;17.626;2023-02-03T08:48:17;3.10;;;2.50;;
60612;SDS011;46443;59.792;17.626;2023-02-03T08:50:43;4.38;;;2.70;;
60612;SDS011;46443;59.792;17.626;2023-02-03T08:53:15;6.35;;;3.40;;
60612;SDS011;46443;59.792;17.626;2023-02-03T08:55:41;3.53;;;2.50;;
60612;SDS011;46443;59.792;17.626;2023-02-03T08:58:07;9.88;;;3.03;;
60612;SDS011;46443;59.792;17.626;2023-02-03T09:00:34;4.25;;;2.63;;
60612;SDS011;46443;59.792;17.626;2023-02-03T09:03:00;7.07;;;3.00;;
60612;SDS011;46443;59.792;17.626;2023-02-03T09:05:26;6.75;;;3.17;;
60612;SDS011;46443;59.792;17.626;2023-02-03T09:07:52;5.78;;;2.53;;
60612;SDS011;46443;59.792;17.626;2023-02-03T09:10:18;5.57;;;2.90;;
60612;SDS011;46443;59.792;17.626;2023-02-03T09:12:44;5.93;;;3.10;;
60612;SDS011;46443;59.792;17.626;2023-02-03T09:15:10;7.70;;;3.10;;
60612;SDS011;46443;59.792;17.626;2023-02-03T09:17:36;6.43;;;2.92;;
60612;SDS011;46443;59.792;17.626;2023-02-03T09:20:02;7.32;;;3.05;;
60612;SDS011;46443;59.792;17.626;2023-02-03T09:22:29;3.33;;;2.25;;
60612;SDS011;46443;59.792;17.626;2023-02-03T09:24:55;5.32;;;2.55;;
60612;SDS011;46443;59.792;17.626;2023-02-03T09:27:21;6.25;;;2.80;;
60612;SDS011;46443;59.792;17.626;2023-02-03T09:29:47;6.50;;;2.90;;
60612;SDS011;46443;59.792;17.626;2023-02-03T09:32:13;6.45;;;2.47;;
60612;SDS011;46443;59.792;17.626;2023-02-03T09:34:39;6.07;;;3.03;;
60612;SDS011;46443;59.792;17.626;2023-02-03T09:37:05;9.30;;;3.15;;
60612;SDS011;46443;59.792;17.626;2023-02-03T09:39:32;7.72;;;3.28;;
60612;SDS011;46443;59.792;17.626;2023-02-03T09:47:02;6.75;;;2.92;;
60612;SDS011;46443;59.792;17.626;2023-02-03T09:49:35;7.38;;;3.15;;
60612;SDS011;46443;59.792;17.626;2023-02-03T09:57:19;4.05;;;2.13;;
60612;SDS011;46443;59.792;17.626;2023-02-03T09:59:46;4.35;;;2.78;;
60612;SDS011;46443;59.792;17.626;2023-02-03T10:04:58;3.22;;;2.42;;
60612;SDS011;46443;59.792;17.626;2023-02-03T10:09:59;4.25;;;2.55;;
60612;SDS011;46443;59.792;17.626;2023-02-03T10:20:07;4.20;;;2.35;;
60612;SDS011;46443;59.792;17.626;2023-02-03T10:22:39;3.47;;;2.30;;
60612;SDS011;46443;59.792;17.626;2023-02-03T10:27:39;3.55;;;2.03;;
60612;SDS011;46443;59.792;17.626;2023-02-03T10:32:32;4.05;;;2.40;;
60612;SDS011;46443;59.792;17.626;2023-02-03T10:35:00;4.82;;;2.50;;
60612;SDS011;46443;59.792;17.626;2023-02-03T10:37:29;5.10;;;2.42;;
60612;SDS011;46443;59.792;17.626;2023-02-03T10:39:56;3.42;;;2.05;;
60612;SDS011;46443;59.792;17.626;2023-02-03T10:42:23;4.88;;;2.28;;
60612;SDS011;46443;59.792;17.626;2023-02-03T10:44:56;3.97;;;2.47;;
60612;SDS011;46443;59.792;17.626;2023-02-03T10:47:33;4.03;;;2.38;;
60612;SDS011;46443;59.792;17.626;2023-02-03T10:50:08;4.20;;;2.40;;
60612;SDS011;46443;59.792;17.626;2023-02-03T10:52:38;5.88;;;2.25;;
60612;SDS011;46443;59.792;17.626;2023-02-03T10:55:27;5.30;;;2.42;;
60612;SDS011;46443;59.792;17.626;2023-02-03T10:57:50;4.85;;;2.22;;
60612;SDS011;46443;59.792;17.626;2023-02-03T11:02:43;5.53;;;2.30;;
60612;SDS011;46443;59.792;17.626;2023-02-03T11:07:42;4.30;;;2.45;;
60612;SDS011;46443;59.792;17.626;2023-02-03T11:10:30;4.78;;;2.40;;
60612;SDS011;46443;59.792;17.626;2023-02-03T11:13:40;3.90;;;2.50;;
60612;SDS011;46443;59.792;17.626;2023-02-03T11:15:49;5.32;;;2.42;;
60612;SDS011;46443;59.792;17.626;2023-02-03T11:18:24;4.93;;;2.53;;
60612;SDS011;46443;59.792;17.626;2023-02-03T11:20:51;4.47;;;2.60;;
60612;SDS011;46443;59.792;17.626;2023-02-03T11:23:18;7.10;;;2.80;;
60612;SDS011;46443;59.792;17.626;2023-02-03T11:25:44;4.03;;;2.10;;
60612;SDS011;46443;59.792;17.626;2023-02-03T11:28:10;5.22;;;2.25;;
60612;SDS011;46443;59.792;17.626;2023-02-03T11:30:37;4.80;;;2.45;;
60612;SDS011;46443;59.792;17.626;2023-02-03T11:33:12;4.72;;;2.42;;
60612;SDS011;46443;59.792;17.626;2023-02-03T11:35:40;6.03;;;2.10;;
60612;SDS011;46443;59.792;17.626;2023-02-03T11:41:16;4.28;;;2.20;;
60612;SDS011;46443;59.792;17.626;2023-02-03T11:43:43;3.85;;;1.80;;
60612;SDS011;46443;59.792;17.626;2023-02-03T11:46:09;4.32;;;2.22;;
60612;SDS011;46443;59.792;17.626;2023-02-03T11:48:42;3.00;;;1.75;;
60612;SDS011;46443;59.792;17.626;2023-02-03T12:10:43;3.45;;;2.03;;
60612;SDS011;46443;59.792;17.626;2023-02-03T12:17:54;3.13;;;1.98;;
60612;SDS011;46443;59.792;17.626;2023-02-03T12:25:46;4.65;;;2.20;;
60612;SDS011;46443;59.792;17.626;2023-02-03T12:30:50;3.75;;;2.22;;
60612;SDS011;46443;59.792;17.626;2023-02-03T12:35:46;4.15;;;2.00;;
60612;SDS011;46443;59.792;17.626;2023-02-03T12:38:15;2.60;;;1.80;;
60612;SDS011;46443;59.792;17.626;2023-02-03T12:40:53;3.80;;;1.83;;
60612;SDS011;46443;59.792;17.626;2023-02-03T12:43:25;3.13;;;1.70;;
60612;SDS011;46443;59.792;17.626;2023-02-03T12:45:55;2.85;;;1.83;;
60612;SDS011;46443;59.792;17.626;2023-02-03T12:48:28;5.47;;;2.05;;
60612;SDS011;46443;59.792;17.626;2023-02-03T12:50:57;3.83;;;2.30;;
60612;SDS011;46443;59.792;17.626;2023-02-03T12:53:42;3.53;;;2.00;;
60612;SDS011;46443;59.792;17.626;2023-02-03T12:59:08;2.78;;;1.80;;
60612;SDS011;46443;59.792;17.626;2023-02-03T13:01:46;4.25;;;2.25;;
60612;SDS011;46443;59.792;17.626;2023-02-03T13:04:20;5.78;;;2.65;;
60612;SDS011;46443;59.792;17.626;2023-02-03T13:09:38;3.45;;;2.00;;
60612;SDS011;46443;59.792;17.626;2023-02-03T13:12:48;3.72;;;1.80;;
60612;SDS011;46443;59.792;17.626;2023-02-03T13:15:08;5.28;;;2.42;;
60612;SDS011;46443;59.792;17.626;2023-02-03T13:20:28;5.25;;;2.17;;
60612;SDS011;46443;59.792;17.626;2023-02-03T13:22:55;3.40;;;2.22;;
60612;SDS011;46443;59.792;17.626;2023-02-03T13:25:26;3.25;;;2.10;;
60612;SDS011;46443;59.792;17.626;2023-02-03T13:40:36;3.58;;;2.03;;
60612;SDS011;46443;59.792;17.626;2023-02-03T13:43:05;3.50;;;1.95;;
60612;SDS011;46443;59.792;17.626;2023-02-03T13:45:37;4.82;;;2.30;;
60612;SDS011;46443;59.792;17.626;2023-02-03T13:48:18;3.75;;;2.17;;
60612;SDS011;46443;59.792;17.626;2023-02-03T13:50:46;5.78;;;2.28;;
60612;SDS011;46443;59.792;17.626;2023-02-03T13:53:17;4.38;;;2.10;;
60612;SDS011;46443;59.792;17.626;2023-02-03T13:55:50;4.10;;;2.28;;
60612;SDS011;46443;59.792;17.626;2023-02-03T13:58:19;3.90;;;2.28;;
60612;SDS011;46443;59.792;17.626;2023-02-03T14:03:15;4.70;;;2.00;;
60612;SDS011;46443;59.792;17.626;2023-02-03T14:05:45;4.93;;;2.33;;
60612;SDS011;46443;59.792;17.626;2023-02-03T14:13:36;4.25;;;2.20;;
60612;SDS011;46443;59.792;17.626;2023-02-03T14:16:23;4.50;;;1.90;;
60612;SDS011;46443;59.792;17.626;2023-02-03T14:18:48;4.35;;;1.85;;
60612;SDS011;46443;59.792;17.626;2023-02-03T14:21:16;3.97;;;1.90;;
60612;SDS011;46443;59.792;17.626;2023-02-03T14:23:44;3.30;;;1.90;;
60612;SDS011;46443;59.792;17.626;2023-02-03T14:26:27;5.00;;;2.40;;
60612;SDS011;46443;59.792;17.626;2023-02-03T14:28:55;3.10;;;1.90;;
60612;SDS011;46443;59.792;17.626;2023-02-03T14:31:23;4.20;;;2.00;;
60612;SDS011;46443;59.792;17.626;2023-02-03T14:38:51;3.60;;;1.80;;
60612;SDS011;46443;59.792;17.626;2023-02-03T14:41:18;3.72;;;1.90;;
60612;SDS011;46443;59.792;17.626;2023-02-03T14:43:51;2.60;;;1.65;;
60612;SDS011;46443;59.792;17.626;2023-02-03T14:46:35;3.40;;;1.80;;
60612;SDS011;46443;59.792;17.626;2023-02-03T14:49:17;3.65;;;1.70;;
60612;SDS011;46443;59.792;17.626;2023-02-03T15:02:09;3.70;;;1.77;;
60612;SDS011;46443;59.792;17.626;2023-02-03T15:04:35;3.28;;;1.90;;
60612;SDS011;46443;59.792;17.626;2023-02-03T15:07:01;2.60;;;1.80;;
60612;SDS011;46443;59.792;17.626;2023-02-03T15:09:29;2.67;;;1.90;;
60612;SDS011;46443;59.792;17.626;2023-02-03T15:11:56;5.40;;;2.00;;
60612;SDS011;46443;59.792;17.626;2023-02-03T15:14:23;3.42;;;1.70;;
60612;SDS011;46443;59.792;17.626;2023-02-03T15:16:57;3.75;;;1.95;;
60612;SDS011;46443;59.792;17.626;2023-02-03T15:19:25;3.55;;;2.00;;
60612;SDS011;46443;59.792;17.626;2023-02-03T15:21:51;3.97;;;1.95;;
60612;SDS011;46443;59.792;17.626;2023-02-03T15:24:19;3.83;;;1.52;;
60612;SDS011;46443;59.792;17.626;2023-02-03T15:26:48;2.35;;;1.52;;
60612;SDS011;46443;59.792;17.626;2023-02-03T15:29:19;2.05;;;1.63;;
60612;SDS011;46443;59.792;17.626;2023-02-03T15:31:47;2.88;;;1.70;;
60612;SDS011;46443;59.792;17.626;2023-02-03T15:36:55;2.63;;;1.58;;
60612;SDS011;46443;59.792;17.626;2023-02-03T15:41:50;2.03;;;1.55;;
60612;SDS011;46443;59.792;17.626;2023-02-03T15:44:23;4.10;;;1.73;;
60612;SDS011;46443;59.792;17.626;2023-02-03T15:46:51;3.60;;;1.50;;
60612;SDS011;46443;59.792;17.626;2023-02-03T15:51:48;2.22;;;1.35;;
60612;SDS011;46443;59.792;17.626;2023-02-03T15:56:59;1.58;;;1.30;;
60612;SDS011;46443;59.792;17.626;2023-02-03T16:02:23;2.25;;;1.42;;
60612;SDS011;46443;59.792;17.626;2023-02-03T16:04:51;2.70;;;1.77;;
60612;SDS011;46443;59.792;17.626;2023-02-03T16:07:21;1.15;;;1.15;;
60612;SDS011;46443;59.792;17.626;2023-02-03T16:09:52;1.75;;;1.30;;
60612;SDS011;46443;59.792;17.626;2023-02-03T16:12:24;6.18;;;1.52;;
60612;SDS011;46443;59.792;17.626;2023-02-03T16:14:52;1.35;;;1.25;;
60612;SDS011;46443;59.792;17.626;2023-02-03T16:19:47;3.83;;;1.30;;
60612;SDS011;46443;59.792;17.626;2023-02-03T16:22:35;3.63;;;1.88;;
60612;SDS011;46443;59.792;17.626;2023-02-03T16:25:23;1.70;;;1.60;;
60612;SDS011;46443;59.792;17.626;2023-02-03T16:27:54;1.85;;;1.23;;
60612;SDS011;46443;59.792;17.626;2023-02-03T16:30:50;2.05;;;1.60;;
60612;SDS011;46443;59.792;17.626;2023-02-03T16:33:35;2.28;;;1.40;;
60612;SDS011;46443;59.792;17.626;2023-02-03T16:36:19;4.10;;;1.63;;
60612;SDS011;46443;59.792;17.626;2023-02-03T16:39:05;2.63;;;1.70;;
60612;SDS011;46443;59.792;17.626;2023-02-03T16:41:54;2.20;;;1.10;;
60612;SDS011;46443;59.792;17.626;2023-02-03T16:44:39;1.23;;;1.13;;
60612;SDS011;46443;59.792;17.626;2023-02-03T16:47:24;1.98;;;1.55;;
60612;SDS011;46443;59.792;17.626;2023-02-03T16:50:13;3.05;;;2.00;;
60612;SDS011;46443;59.792;17.626;2023-02-03T16:52:58;1.67;;;1.20;;
60612;SDS011;46443;59.792;17.626;2023-02-03T16:55:24;1.40;;;1.30;;
60612;SDS011;46443;59.792;17.626;2023-02-03T16:57:50;1.63;;;1.38;;
60612;SDS011;46443;59.792;17.626;2023-02-03T17:00:17;1.73;;;1.40;;
60612;SDS011;46443;59.792;17.626;2023-02-03T17:02:46;3.03;;;1.40;;
60612;SDS011;46443;59.792;17.626;2023-02-03T17:05:13;1.25;;;1.17;;
60612;SDS011;46443;59.792;17.626;2023-02-03T17:07:39;3.90;;;1.70;;
60612;SDS011;46443;59.792;17.626;2023-02-03T17:10:05;3.42;;;1.60;;
60612;SDS011;46443;59.792;17.626;2023-02-03T17:12:31;4.75;;;1.90;;
60612;SDS011;46443;59.792;17.626;2023-02-03T17:14:57;2.72;;;1.35;;